Time;durP1;ratioP1;P1;durP2;ratioP2;P2;SDS_P1;SDS_P2;PMS_P1;PMS_P2;Temp;Humidity;BMP_temperature;BMP_pressure;BME280_temperature;BME280_humidity;BME280_pressure;Samples;Min_cycle;Max_cycle;Signal;HPM_P1;HPM_P2
2022/05/31 00:02:23;;;;;;;2.63;2.28;;;;;;;13.38;48.60;96325.25;4848834;29;20035;-82
2022/05/31 00:04:52;;;;;;;3.60;1.70;;;;;;;13.31;48.37;96322.66;4849745;29;20042;-80
2022/05/31 00:07:20;;;;;;;2.75;1.90;;;;;;;13.22;48.17;96320.44;4848726;29;20278;-81
2022/05/31 00:09:48;;;;;;;2.45;1.50;;;;;;;13.15;48.12;96318.63;4847862;29;20058;-82
2022/05/31 00:12:16;;;;;;;2.35;1.77;;;;;;;13.13;48.01;96323.28;4847471;29;20058;-82
2022/05/31 00:14:46;;;;;;;1.85;1.50;;;;;;;13.12;47.96;96319.06;4847912;29;20064;-82
2022/05/31 00:17:13;;;;;;;2.00;1.65;;;;;;;13.10;47.91;96318.47;4847769;29;20058;-82
2022/05/31 00:19:41;;;;;;;2.97;1.88;;;;;;;13.08;47.70;96322.28;4847155;29;20054;-82
2022/05/31 00:22:12;;;;;;;1.80;1.30;;;;;;;13.01;47.42;96311.84;4846913;29;20087;-82
2022/05/31 00:24:41;;;;;;;2.53;1.30;;;;;;;12.93;47.73;96312.84;4847688;29;20058;-81
2022/05/31 00:27:09;;;;;;;3.58;1.60;;;;;;;12.86;47.80;96311.25;4847358;29;20058;-82
2022/05/31 00:29:37;;;;;;;1.52;1.42;;;;;;;12.81;47.86;96308.41;4847362;29;20078;-82
2022/05/31 00:32:11;;;;;;;1.88;1.58;;;;;;;12.77;48.01;96308.84;4847274;29;20038;-82
2022/05/31 00:34:40;;;;;;;5.15;1.45;;;;;;;12.76;47.87;96304.59;4847335;29;20051;-82
2022/05/31 00:37:09;;;;;;;2.08;1.42;;;;;;;12.74;47.98;96303.97;4847077;29;20085;-82
2022/05/31 00:39:37;;;;;;;2.20;1.73;;;;;;;12.72;48.06;96303.38;4846635;29;20058;-82
2022/05/31 00:42:08;;;;;;;1.73;1.60;;;;;;;12.69;48.25;96300.38;4846295;29;20074;-82
2022/05/31 00:44:37;;;;;;;2.13;1.27;;;;;;;12.66;48.37;96300.75;4847066;29;20055;-82
2022/05/31 00:47:12;;;;;;;1.60;1.50;;;;;;;12.62;48.42;96300.38;4846885;29;20062;-82
2022/05/31 00:49:44;;;;;;;4.57;1.98;;;;;;;12.58;48.35;96293.94;4847224;29;20049;-82
2022/05/31 00:52:14;;;;;;;2.72;1.42;;;;;;;12.54;48.63;96305.81;4846442;29;20058;-82
2022/05/31 00:54:48;;;;;;;1.95;1.30;;;;;;;12.54;48.92;96303.19;4847372;29;20046;-82
2022/05/31 00:57:16;;;;;;;2.92;1.67;;;;;;;12.54;48.73;96297.97;4846554;29;20118;-82
2022/05/31 00:59:47;;;;;;;2.45;1.40;;;;;;;12.48;48.70;96293.53;4846666;29;20070;-82
2022/05/31 01:02:18;;;;;;;3.03;1.90;;;;;;;12.47;48.88;96291.94;4845968;29;20083;-82
2022/05/31 01:04:50;;;;;;;1.75;1.27;;;;;;;12.44;48.99;96294.94;4846219;29;20093;-82
2022/05/31 01:07:18;;;;;;;2.10;1.67;;;;;;;12.40;49.08;96296.34;4845539;29;20058;-82
2022/05/31 01:09:46;;;;;;;3.25;1.85;;;;;;;12.36;49.08;96290.72;4846099;29;20061;-81
2022/05/31 01:12:15;;;;;;;4.30;1.58;;;;;;;12.32;49.33;96290.31;4845451;29;20065;-82
2022/05/31 01:14:43;;;;;;;2.17;1.73;;;;;;;12.33;49.44;96291.94;4845705;29;20066;-81
2022/05/31 01:17:15;;;;;;;2.08;1.60;;;;;;;12.42;51.49;96289.09;4845561;29;20065;-81
2022/05/31 01:19:56;;;;;;;2.90;1.80;;;;;;;12.51;50.97;96293.16;4846006;29;20042;-81
2022/05/31 01:22:34;;;;;;;2.80;2.03;;;;;;;12.56;51.83;96294.13;4845807;29;20046;-82
2022/05/31 01:25:10;;;;;;;1.65;1.55;;;;;;;12.60;51.27;96291.94;4845763;29;20070;-82
2022/05/31 01:27:44;;;;;;;1.98;1.77;;;;;;;12.61;51.38;96290.91;4846123;29;20284;-82
2022/05/31 01:30:13;;;;;;;2.42;2.22;;;;;;;12.59;50.90;96287.69;4845800;29;20122;-82
2022/05/31 01:32:46;;;;;;;4.07;1.85;;;;;;;12.56;50.71;96296.75;4845377;29;20145;-82
2022/05/31 01:35:20;;;;;;;3.67;2.28;;;;;;;12.51;50.64;96290.53;4845781;29;20062;-82
2022/05/31 01:37:53;;;;;;;3.75;2.30;;;;;;;12.41;50.34;96290.13;4845180;29;20498;-82
2022/05/31 01:40:29;;;;;;;2.30;2.10;;;;;;;12.33;50.86;96291.94;4845260;29;20077;-81
2022/05/31 01:42:57;;;;;;;3.03;2.60;;;;;;;12.27;50.64;96294.53;4845041;29;20087;-82
2022/05/31 01:45:29;;;;;;;3.55;2.20;;;;;;;12.21;51.07;96290.09;4844731;29;20117;-82
2022/05/31 01:48:01;;;;;;;2.53;2.33;;;;;;;12.15;51.03;96291.69;4844839;29;20098;-82
2022/05/31 01:50:29;;;;;;;2.75;2.42;;;;;;;12.05;51.02;96291.28;4845227;29;20073;-82
2022/05/31 01:53:00;;;;;;;2.92;2.63;;;;;;;11.94;51.45;96292.66;4845711;29;20062;-82
2022/05/31 01:55:27;;;;;;;2.15;1.90;;;;;;;11.86;51.47;96291.00;4845305;29;20054;-82
2022/05/31 01:57:59;;;;;;;3.78;2.20;;;;;;;11.88;51.93;96294.25;4845356;29;20164;-82
2022/05/31 02:00:27;;;;;;;1.98;1.70;;;;;;;11.93;53.13;96289.22;4844553;29;20434;-82
2022/05/31 02:02:59;;;;;;;2.70;2.42;;;;;;;11.94;51.90;96290.06;4844592;29;20087;-82
2022/05/31 02:05:27;;;;;;;2.35;2.10;;;;;;;11.87;51.95;96286.56;4843916;29;20050;-82
2022/05/31 02:07:56;;;;;;;3.25;2.40;;;;;;;11.84;52.01;96292.19;4844805;29;20514;-82
2022/05/31 02:10:26;;;;;;;2.33;1.85;;;;;;;11.85;52.66;96294.63;4845684;29;20054;-82
2022/05/31 02:12:55;;;;;;;5.38;2.85;;;;;;;11.87;52.16;96291.78;4845471;29;20038;-81
2022/05/31 02:15:24;;;;;;;4.97;2.22;;;;;;;11.86;52.21;96293.59;4845404;29;20050;-81
2022/05/31 02:17:52;;;;;;;3.55;2.22;;;;;;;11.75;52.29;96294.19;4844869;29;20047;-82
2022/05/31 02:20:20;;;;;;;3.10;2.28;;;;;;;11.61;52.57;96297.75;4843700;29;20058;-82
2022/05/31 02:22:47;;;;;;;3.40;2.10;;;;;;;11.54;52.83;96290.72;4843814;29;20051;-82
2022/05/31 02:25:15;;;;;;;2.40;1.92;;;;;;;11.46;52.75;96290.06;4842557;29;20055;-82
2022/05/31 02:27:45;;;;;;;2.38;2.17;;;;;;;11.44;53.27;96299.91;4843540;29;20085;-82
2022/05/31 02:30:13;;;;;;;4.00;2.20;;;;;;;11.47;54.36;96300.31;4843226;29;20047;-82
2022/05/31 02:32:41;;;;;;;2.40;2.20;;;;;;;11.53;53.64;96304.75;4844810;29;20034;-81
2022/05/31 02:35:09;;;;;;;2.05;1.85;;;;;;;11.61;54.26;96308.19;4843060;29;20089;-81
2022/05/31 02:37:38;;;;;;;5.25;2.90;;;;;;;11.68;53.88;96309.03;4846604;29;20179;-82
2022/05/31 02:40:07;;;;;;;5.47;2.58;;;;;;;11.66;52.93;96311.03;4845711;29;20065;-81
2022/05/31 02:42:39;;;;;;;3.50;1.83;;;;;;;11.55;52.66;96305.38;4845546;29;20089;-81
2022/05/31 02:45:11;;;;;;;2.92;2.08;;;;;;;11.45;52.63;96310.13;4845690;29;20088;-82
2022/05/31 02:47:40;;;;;;;2.25;1.60;;;;;;;11.32;52.70;96310.06;4847211;29;20058;-81
2022/05/31 02:50:08;;;;;;;2.08;1.88;;;;;;;11.18;53.11;96306.59;4847750;29;20039;-81
2022/05/31 02:52:36;;;;;;;3.53;1.75;;;;;;;11.07;53.22;96307.13;4844369;29;20073;-82
2022/05/31 02:55:04;;;;;;;3.00;1.90;;;;;;;10.94;53.31;96302.63;4842597;29;20057;-81
2022/05/31 02:57:32;;;;;;;3.08;2.10;;;;;;;10.89;53.45;96300.59;4842991;29;20089;-82
2022/05/31 02:59:59;;;;;;;1.70;1.60;;;;;;;10.91;53.49;96300.41;4843144;29;20126;-80
2022/05/31 03:02:29;;;;;;;2.42;2.22;;;;;;;11.00;54.47;96298.44;4843987;29;20077;-81
2022/05/31 03:04:57;;;;;;;3.05;2.53;;;;;;;11.03;54.20;96293.66;4845133;29;20567;-82
2022/05/31 03:07:25;;;;;;;3.47;2.33;;;;;;;11.03;54.04;96291.03;4844607;29;20118;-82
2022/05/31 03:09:52;;;;;;;2.53;2.38;;;;;;;10.98;53.78;96290.81;4844936;29;20130;-81
2022/05/31 03:12:21;;;;;;;3.03;2.55;;;;;;;10.95;54.01;96291.19;4842644;29;20054;-82
2022/05/31 03:14:54;;;;;;;3.45;2.53;;;;;;;10.91;53.97;96292.56;4843773;29;20038;-82
2022/05/31 03:17:28;;;;;;;4.22;2.35;;;;;;;10.85;54.23;96290.75;4843698;29;20074;-82
2022/05/31 03:20:01;;;;;;;2.70;2.50;;;;;;;10.77;54.20;96288.28;4843107;29;20077;-82
2022/05/31 03:22:33;;;;;;;3.15;2.22;;;;;;;10.71;54.53;96288.03;4841939;29;20054;-82
2022/05/31 03:25:08;;;;;;;2.28;2.08;;;;;;;10.68;54.66;96288.41;4842850;29;20081;-82
2022/05/31 03:27:36;;;;;;;3.72;2.67;;;;;;;10.66;54.71;96285.19;4842579;29;20077;-82
2022/05/31 03:30:05;;;;;;;2.63;2.00;;;;;;;10.68;55.20;96287.59;4842034;29;20066;-81
2022/05/31 03:32:35;;;;;;;3.63;1.80;;;;;;;10.70;54.76;96275.97;4846336;29;20078;-82
2022/05/31 03:35:08;;;;;;;3.28;2.05;;;;;;;10.66;54.66;96273.94;4842105;29;20061;-82
2022/05/31 03:37:35;;;;;;;3.05;1.90;;;;;;;10.62;54.61;96273.50;4841997;29;20123;-82
2022/05/31 03:40:04;;;;;;;4.47;2.08;;;;;;;10.61;54.74;96266.69;4841673;29;20133;-81
2022/05/31 03:42:38;;;;;;;3.60;2.63;;;;;;;10.62;54.69;96270.91;4842149;29;20074;-82
2022/05/31 03:45:07;;;;;;;2.03;1.90;;;;;;;10.67;54.81;96271.16;4841869;29;20054;-82
2022/05/31 03:47:35;;;;;;;3.25;2.30;;;;;;;10.72;54.92;96273.19;4842124;29;20050;-82
2022/05/31 03:50:02;;;;;;;4.55;2.53;;;;;;;10.72;55.07;96265.38;4840124;29;20080;-81
2022/05/31 03:52:32;;;;;;;2.40;1.92;;;;;;;10.72;55.40;96276.59;4840371;29;20058;-82
2022/05/31 03:55:00;;;;;;;2.20;2.00;;;;;;;10.73;54.85;96266.97;4841190;29;20082;-82
2022/05/31 03:57:27;;;;;;;6.45;3.30;;;;;;;10.76;55.33;96276.22;4842023;29;20054;-82
2022/05/31 03:59:55;;;;;;;3.00;2.45;;;;;;;10.79;55.43;96266.22;4841552;29;20069;-82
2022/05/31 04:02:23;;;;;;;3.83;2.40;;;;;;;10.87;55.82;96271.28;4840858;29;20118;-82
2022/05/31 04:04:50;;;;;;;3.97;2.75;;;;;;;10.96;55.75;96269.34;4841173;29;20050;-82
2022/05/31 04:07:18;;;;;;;2.67;2.47;;;;;;;11.03;55.83;96277.19;4841559;29;20089;-82
2022/05/31 04:09:47;;;;;;;2.70;2.50;;;;;;;11.06;55.28;96274.19;4847514;29;20080;-82
2022/05/31 04:14:59;;;;;;;4.25;2.17;;;;;;;11.05;55.06;96283.03;4965312;23;20080;-81
2022/05/31 04:17:27;;;;;;;3.42;2.05;;;;;;;11.05;55.23;96269.97;4899914;29;20057;-81
2022/05/31 04:19:58;;;;;;;2.55;1.92;;;;;;;11.08;55.33;96273.00;4902103;29;20497;-80
2022/05/31 04:25:09;;;;;;;2.40;2.00;;;;;;;11.13;55.32;96273.25;4235794;27;20052;-82
2022/05/31 04:27:37;;;;;;;2.63;2.13;;;;;;;11.18;55.48;96261.41;4896052;29;20052;-79
2022/05/31 04:30:06;;;;;;;2.20;2.00;;;;;;;11.21;55.40;96258.41;4898499;29;20076;-81
2022/05/31 04:32:33;;;;;;;3.83;1.60;;;;;;;11.24;55.54;96255.41;4899548;29;20053;-81
2022/05/31 04:35:01;;;;;;;2.20;1.75;;;;;;;11.28;55.54;96262.69;4896318;29;20045;-81
2022/05/31 04:37:29;;;;;;;2.85;2.55;;;;;;;11.33;55.34;96275.16;4895645;29;20109;-81
2022/05/31 04:39:58;;;;;;;6.88;2.15;;;;;;;11.33;55.37;96270.72;4894822;29;20055;-81
2022/05/31 04:42:33;;;;;;;5.78;1.90;;;;;;;11.34;55.40;96269.72;4883875;29;20074;-81
2022/05/31 04:45:03;;;;;;;4.10;2.15;;;;;;;11.35;55.51;96278.38;4899687;29;20060;-81
2022/05/31 04:47:33;;;;;;;3.08;2.20;;;;;;;11.37;55.56;96276.38;4901783;29;20057;-81
2022/05/31 04:50:01;;;;;;;2.60;2.10;;;;;;;11.41;56.07;96277.56;4881170;29;20591;-79
2022/05/31 04:52:28;;;;;;;4.03;2.10;;;;;;;11.50;56.04;96280.81;4879565;29;20057;-79
2022/05/31 04:54:57;;;;;;;2.08;1.73;;;;;;;11.60;56.17;96280.47;4882237;29;20053;-81
2022/05/31 04:57:41;;;;;;;2.03;1.90;;;;;;;11.66;55.92;96284.91;4908356;29;20040;-81
2022/05/31 05:00:16;;;;;;;2.60;2.40;;;;;;;11.68;55.79;96280.31;4915991;23;20050;-81
2022/05/31 05:02:46;;;;;;;4.57;2.67;;;;;;;11.67;55.69;96287.31;5015355;23;20112;-80
2022/05/31 05:05:16;;;;;;;4.43;3.15;;;;;;;11.69;55.68;96284.50;4903119;29;20037;-80
2022/05/31 05:07:45;;;;;;;4.57;2.58;;;;;;;11.70;55.55;96276.50;4898222;29;20456;-79
2022/05/31 05:10:12;;;;;;;5.80;2.47;;;;;;;11.70;55.62;96275.69;4891644;29;20191;-78
2022/05/31 05:12:45;;;;;;;3.13;2.78;;;;;;;11.72;55.93;96273.69;4892880;29;20053;-79
2022/05/31 05:20:38;;;;;;;2.63;1.85;;;;;;;11.81;56.01;96269.88;4864811;29;20061;-82
2022/05/31 05:23:10;;;;;;;2.65;2.15;;;;;;;11.84;56.17;96276.53;4966727;23;20061;-79
2022/05/31 05:25:39;;;;;;;2.28;1.85;;;;;;;11.88;56.22;96278.56;4885428;29;20040;-79
2022/05/31 05:30:58;;;;;;;5.57;1.90;;;;;;;11.95;55.99;96279.38;4884459;29;20082;-79
2022/05/31 05:33:31;;;;;;;2.97;2.17;;;;;;;12.02;56.13;96262.91;4885454;29;20032;-80
2022/05/31 05:36:08;;;;;;;5.10;2.15;;;;;;;12.06;56.01;96262.31;4884820;29;20074;-78
2022/05/31 05:38:38;;;;;;;2.70;1.63;;;;;;;12.11;56.12;96259.94;4885252;29;20077;-79
2022/05/31 05:41:10;;;;;;;3.40;1.58;;;;;;;12.19;56.27;96264.13;4885140;29;20065;-79
2022/05/31 05:43:42;;;;;;;1.58;1.48;;;;;;;12.27;56.24;96256.09;4884867;29;20041;-79
2022/05/31 05:46:15;;;;;;;6.18;2.28;;;;;;;12.34;56.41;96254.28;4884973;29;20096;-79
2022/05/31 05:48:49;;;;;;;1.38;1.27;;;;;;;12.43;56.00;96254.91;4884120;29;20053;-78
2022/05/31 05:51:23;;;;;;;5.15;1.98;;;;;;;12.51;56.28;96254.69;4884450;29;20189;-79
2022/05/31 05:54:01;;;;;;;2.38;1.40;;;;;;;12.58;56.17;96252.88;4884563;29;20049;-78
2022/05/31 05:56:34;;;;;;;4.78;2.22;;;;;;;12.67;56.05;96250.84;4884247;29;20132;-79
2022/05/31 05:59:06;;;;;;;1.75;1.60;;;;;;;12.74;56.08;96256.88;4884688;29;20058;-78
2022/05/31 06:01:39;;;;;;;2.28;1.63;;;;;;;12.82;56.00;96262.94;4884404;29;20063;-79
2022/05/31 06:04:33;;;;;;;3.67;2.15;;;;;;;12.89;55.81;96263.72;4884626;29;20079;-79
2022/05/31 06:07:15;;;;;;;3.25;1.50;;;;;;;12.94;55.82;96266.50;4884168;29;20077;-79
2022/05/31 07:03:40;;;;;;;3.50;1.52;;;;;;;14.48;54.47;96283.16;4907545;29;20048;-79
2022/05/31 07:06:18;;;;;;;3.90;1.50;;;;;;;14.59;54.06;96287.72;5085546;23;20058;-79
2022/05/31 08:02:41;;;;;;;2.80;1.10;;;;;;;16.50;47.08;96235.88;4958906;29;20115;-79
2022/05/31 08:05:18;;;;;;;1.83;0.93;;;;;;;16.60;47.03;96236.13;4961904;29;20052;-80
2022/05/31 08:07:51;;;;;;;4.07;1.00;;;;;;;16.68;45.89;96244.50;4962624;29;20039;-80
2022/05/31 08:10:49;;;;;;;1.33;0.80;;;;;;;16.77;45.85;96223.88;4962180;29;20028;-80
2022/05/31 08:13:23;;;;;;;1.02;0.65;;;;;;;16.85;44.94;96234.09;4961973;29;20052;-80
2022/05/31 08:16:00;;;;;;;1.58;0.75;;;;;;;16.91;44.09;96231.56;4945766;29;20032;-82
2022/05/31 08:18:45;;;;;;;3.25;0.75;;;;;;;16.95;43.63;96232.72;4946821;29;20036;-82
2022/05/31 08:21:27;;;;;;;2.33;0.75;;;;;;;17.03;43.36;96234.97;4961778;29;20062;-82
2022/05/31 08:24:12;;;;;;;3.15;1.02;;;;;;;17.10;43.63;96240.94;4962342;29;20039;-80
2022/05/31 08:27:05;;;;;;;1.40;0.65;;;;;;;17.19;43.54;96238.75;4962016;29;20031;-81
2022/05/31 08:29:48;;;;;;;2.05;0.90;;;;;;;17.26;43.30;96234.16;4962443;29;20032;-79
2022/05/31 08:32:37;;;;;;;2.78;1.00;;;;;;;17.35;42.23;96238.03;4961174;29;20075;-79
2022/05/31 08:35:22;;;;;;;0.90;0.70;;;;;;;17.44;41.72;96239.25;4960832;29;20052;-81
2022/05/31 08:38:17;;;;;;;5.22;0.95;;;;;;;17.55;42.06;96237.63;4947758;29;20036;-78
2022/05/31 08:41:09;;;;;;;1.63;0.82;;;;;;;17.65;41.44;96235.19;4961259;29;20052;-79
2022/05/31 08:44:04;;;;;;;2.55;0.73;;;;;;;17.76;41.34;96238.00;4945390;29;20059;-79
2022/05/31 08:53:24;;;;;;;4.45;1.48;;;;;;;18.06;40.81;96214.84;4960700;29;20034;-80
2022/05/31 08:58:55;;;;;;;2.90;1.30;;;;;;;18.29;40.11;96211.22;4960942;29;20051;-79
2022/05/31 09:04:33;;;;;;;5.25;1.35;;;;;;;18.52;39.87;96218.19;5124846;23;20062;-80
2022/05/31 09:07:17;;;;;;;3.63;1.30;;;;;;;18.63;40.27;96207.75;4961695;29;20495;-80
2022/05/31 09:15:58;;;;;;;2.00;0.98;;;;;;;18.91;38.92;96210.34;5024332;23;20099;-81
2022/05/31 09:18:42;;;;;;;2.38;0.77;;;;;;;19.00;38.89;96210.72;4959232;29;20133;-85
2022/05/31 09:21:22;;;;;;;2.17;0.70;;;;;;;19.09;38.38;96211.09;4959212;29;20106;-81
2022/05/31 09:23:56;;;;;;;1.80;0.80;;;;;;;19.17;38.50;96207.19;4958113;29;20067;-80
2022/05/31 09:26:51;;;;;;;3.15;1.10;;;;;;;19.22;38.71;96220.47;4958752;29;20057;-81
2022/05/31 09:29:33;;;;;;;1.42;0.63;;;;;;;19.24;38.01;96216.56;4959048;29;20051;-82
2022/05/31 09:32:14;;;;;;;3.22;0.70;;;;;;;19.26;38.24;96214.47;4973252;29;20058;-83
2022/05/31 09:35:06;;;;;;;0.85;0.73;;;;;;;19.31;38.79;96217.16;4977062;28;20058;-81
2022/05/31 09:37:56;;;;;;;1.65;0.98;;;;;;;19.35;38.52;96213.00;4959224;29;20047;-81
2022/05/31 09:40:41;;;;;;;1.80;0.82;;;;;;;19.39;37.86;96223.06;4960096;29;20403;-83
2022/05/31 09:43:18;;;;;;;1.88;1.15;;;;;;;19.42;37.64;96209.38;4962064;29;20549;-81
2022/05/31 09:45:58;;;;;;;2.35;0.98;;;;;;;19.43;37.75;96213.59;4960540;28;20051;-81
2022/05/31 09:48:27;;;;;;;3.00;0.80;;;;;;;19.46;38.43;96213.91;4959778;29;20162;-82
2022/05/31 09:51:17;;;;;;;3.28;0.90;;;;;;;19.49;38.00;96220.53;4959242;29;20089;-81
2022/05/31 09:59:29;;;;;;;1.42;0.98;;;;;;;19.60;38.33;96210.88;4959192;29;20051;-83
2022/05/31 10:02:18;;;;;;;2.08;0.95;;;;;;;19.63;37.57;96208.50;4958631;29;20147;-84
2022/05/31 10:04:49;;;;;;;3.58;0.82;;;;;;;19.68;37.68;96211.22;4958716;29;20051;-83
2022/05/31 10:07:38;;;;;;;2.22;0.63;;;;;;;19.75;37.59;96214.50;4959183;29;20061;-80
2022/05/31 10:10:15;;;;;;;2.22;0.73;;;;;;;19.84;37.68;96206.13;4959086;29;20503;-81
2022/05/31 10:12:57;;;;;;;2.03;1.00;;;;;;;19.90;37.85;96205.91;4962305;29;20052;-83
2022/05/31 10:15:51;;;;;;;2.90;0.77;;;;;;;19.99;38.20;96198.31;4970050;29;20454;-85
2022/05/31 10:18:39;;;;;;;8.45;1.20;;;;;;;20.06;38.32;96198.91;4970904;29;20071;-86
2022/05/31 10:21:09;;;;;;;3.30;1.00;;;;;;;20.14;38.60;96198.44;4967694;29;20055;-90
2022/05/31 10:23:41;;;;;;;7.00;0.85;;;;;;;20.24;39.08;96194.28;4968095;29;20490;-87
2022/05/31 10:26:24;;;;;;;5.68;0.70;;;;;;;20.31;38.60;96184.25;4966594;29;20062;-87
2022/05/31 10:29:23;;;;;;;2.03;0.77;;;;;;;20.40;37.68;96187.25;4966332;29;20055;-85
2022/05/31 10:31:56;;;;;;;1.05;0.80;;;;;;;20.45;36.88;96188.09;4964756;29;20051;-86
2022/05/31 10:34:35;;;;;;;2.92;1.10;;;;;;;20.50;36.42;96189.97;4965496;29;20059;-85
2022/05/31 10:37:08;;;;;;;1.85;0.82;;;;;;;20.55;36.98;96188.16;4964725;29;20062;-88
2022/05/31 10:39:40;;;;;;;1.98;0.70;;;;;;;20.62;37.08;96181.84;4965931;29;20058;-87
2022/05/31 10:42:16;;;;;;;1.75;0.70;;;;;;;20.68;37.44;96171.03;4959923;29;20075;-84
2022/05/31 10:44:56;;;;;;;1.20;0.88;;;;;;;20.76;37.04;96175.84;4961252;29;20052;-85
2022/05/31 10:47:33;;;;;;;1.25;0.90;;;;;;;20.82;36.78;96175.91;4961709;29;20067;-86
2022/05/31 10:52:58;;;;;;;0.95;0.75;;;;;;;20.91;36.09;96177.78;4960574;29;20131;-83
2022/05/31 10:55:40;;;;;;;6.07;1.25;;;;;;;20.93;36.50;96183.63;4961090;28;20090;-86
2022/05/31 10:58:16;;;;;;;;;;;;;;;20.97;37.00;96176.75;4965112;29;20537;-85
2022/05/31 11:00:56;;;;;;;1.73;0.90;;;;;;;21.03;36.22;96182.09;4965288;29;20361;-85
2022/05/31 11:03:47;;;;;;;1.42;1.00;;;;;;;21.07;36.03;96172.56;4964431;29;20062;-85
2022/05/31 11:06:32;;;;;;;1.08;1.00;;;;;;;21.10;36.35;96172.03;4964207;29;20055;-88
2022/05/31 11:12:25;;;;;;;2.17;1.00;;;;;;;21.18;36.48;96168.88;4963379;29;20051;-84
2022/05/31 11:15:15;;;;;;;1.42;0.85;;;;;;;21.22;36.83;96172.63;4963208;29;20055;-86
2022/05/31 11:18:14;;;;;;;2.28;0.85;;;;;;;21.29;37.15;96167.84;4962546;29;20047;-84
2022/05/31 11:20:59;;;;;;;2.97;0.85;;;;;;;21.35;36.82;96155.41;4961896;29;20051;-84
2022/05/31 11:23:56;;;;;;;1.85;0.95;;;;;;;21.38;35.68;96168.16;4963775;29;20047;-83
2022/05/31 11:26:44;;;;;;;3.00;1.35;;;;;;;21.42;35.80;96157.84;4963233;29;20507;-83
2022/05/31 11:30:01;;;;;;;0.70;0.70;;;;;;;21.45;36.14;96159.97;4962025;29;20094;-82
2022/05/31 11:32:47;;;;;;;1.90;0.90;;;;;;;21.49;36.27;96161.03;4962087;29;20047;-83
2022/05/31 11:35:39;;;;;;;2.15;0.85;;;;;;;21.53;36.20;96154.16;4961486;29;20131;-84
2022/05/31 11:38:19;;;;;;;1.17;1.05;;;;;;;21.54;34.90;96166.38;4961006;29;20106;-86
2022/05/31 11:41:11;;;;;;;1.38;0.90;;;;;;;21.55;34.67;96160.00;4961281;29;20130;-83
2022/05/31 11:44:09;;;;;;;1.88;1.20;;;;;;;21.57;34.96;96149.94;4961511;29;20163;-87
2022/05/31 11:46:44;;;;;;;0.93;0.70;;;;;;;21.58;35.65;96149.69;4960472;29;20134;-82
2022/05/31 11:49:23;;;;;;;1.17;0.75;;;;;;;21.58;35.44;96151.50;4960311;29;20529;-82
2022/05/31 11:52:28;;;;;;;1.25;0.82;;;;;;;21.60;34.92;96157.34;4960385;29;20059;-88
2022/05/31 11:55:39;;;;;;;2.72;0.88;;;;;;;21.63;34.63;96158.72;4961766;29;20055;-89
2022/05/31 11:58:24;;;;;;;1.10;0.85;;;;;;;21.66;34.08;96151.00;4960502;29;20059;-87
2022/05/31 12:01:05;;;;;;;1.52;0.90;;;;;;;21.66;34.77;96153.66;4960818;29;20050;-85
2022/05/31 12:03:48;;;;;;;2.88;1.08;;;;;;;21.68;35.00;96156.06;4963266;29;20055;-87
2022/05/31 12:06:39;;;;;;;1.02;0.88;;;;;;;21.68;34.22;96156.84;4961889;29;20059;-83
2022/05/31 12:09:16;;;;;;;1.83;1.42;;;;;;;21.68;33.69;96158.72;4960540;29;20062;-83
2022/05/31 12:11:57;;;;;;;4.35;0.73;;;;;;;21.68;33.70;96164.00;4960579;29;20418;-82
2022/05/31 12:14:38;;;;;;;1.45;0.75;;;;;;;21.68;33.69;96164.81;4961493;29;20047;-88
2022/05/31 12:20:12;;;;;;;1.63;0.90;;;;;;;21.75;33.53;96152.06;4959388;29;20146;-88
2022/05/31 12:22:53;;;;;;;2.20;1.23;;;;;;;21.78;33.48;96150.75;4960453;29;20430;-87
2022/05/31 12:25:31;;;;;;;4.20;1.08;;;;;;;21.79;33.11;96149.69;4960450;29;20066;-83
2022/05/31 12:28:29;;;;;;;4.03;1.67;;;;;;;21.81;32.69;96155.53;4961269;29;20122;-81
2022/05/31 12:31:16;;;;;;;4.97;1.52;;;;;;;21.84;32.65;96162.16;4959409;29;20082;-88
2022/05/31 12:33:51;;;;;;;3.60;1.20;;;;;;;21.88;32.20;96155.28;4959584;29;20417;-84
2022/05/31 12:36:48;;;;;;;3.35;0.77;;;;;;;21.90;32.29;96153.16;4959732;29;20055;-81
2022/05/31 12:39:35;;;;;;;1.60;1.00;;;;;;;21.89;32.36;96147.06;4960006;29;20071;-83
2022/05/31 12:42:38;;;;;;;4.88;1.40;;;;;;;21.91;32.38;96149.44;4962174;29;20082;-87
2022/05/31 12:45:21;;;;;;;5.57;1.17;;;;;;;21.93;32.71;96148.13;4962457;29;20530;-85
2022/05/31 12:48:02;;;;;;;3.95;0.80;;;;;;;21.96;32.29;96138.81;4961163;29;20561;-84
2022/05/31 12:51:11;;;;;;;1.10;0.75;;;;;;;21.98;32.65;96150.78;4960337;29;20113;-84
2022/05/31 12:53:58;;;;;;;1.08;0.73;;;;;;;22.00;32.50;96147.84;4961299;29;20051;-86
2022/05/31 12:57:05;;;;;;;2.17;0.90;;;;;;;22.02;32.70;96153.69;4960333;29;20055;-86
2022/05/31 13:00:07;;;;;;;3.53;0.80;;;;;;;22.05;33.18;96139.88;4959875;29;20055;-82
2022/05/31 13:02:47;;;;;;;1.42;0.60;;;;;;;22.08;33.27;96149.16;4960174;29;20090;-84
2022/05/31 13:09:06;;;;;;;1.63;0.95;;;;;;;22.14;33.50;96137.50;4958505;29;20109;-86
2022/05/31 13:20:39;;;;;;;3.72;1.40;;;;;;;22.08;33.68;96152.63;4956215;28;19922;-82
2022/05/31 13:23:17;;;;;;;0.75;0.75;;;;;;;22.04;33.53;96142.78;4957050;29;20098;-83
2022/05/31 13:25:58;;;;;;;5.10;0.82;;;;;;;22.02;33.69;96149.19;4957797;29;20051;-85
2022/05/31 13:28:34;;;;;;;1.77;1.00;;;;;;;22.00;33.30;96148.66;4958690;29;20051;-88
2022/05/31 13:31:19;;;;;;;2.00;0.80;;;;;;;21.97;33.80;96143.88;4958890;29;20051;-81
2022/05/31 13:34:00;;;;;;;4.32;1.27;;;;;;;21.95;34.04;96150.50;4958185;29;20053;-87
2022/05/31 13:36:36;;;;;;;2.28;0.93;;;;;;;21.92;34.09;96141.19;4958027;29;20051;-86
2022/05/31 13:39:14;;;;;;;4.57;1.00;;;;;;;21.90;33.30;96145.19;4956956;29;20070;-82
2022/05/31 13:41:51;;;;;;;1.80;0.90;;;;;;;21.87;33.57;96146.53;4958376;29;20090;-88
2022/05/31 13:44:30;;;;;;;1.70;1.02;;;;;;;21.84;34.14;96139.06;4963654;29;20051;-87
2022/05/31 13:47:13;;;;;;;3.25;1.10;;;;;;;21.83;33.82;96139.34;4962725;29;20051;-87
2022/05/31 13:49:48;;;;;;;4.10;0.98;;;;;;;21.79;33.62;96147.03;4961758;29;20089;-89
2022/05/31 13:52:32;;;;;;;2.25;1.10;;;;;;;21.77;34.00;96144.63;4961996;29;20081;-88
2022/05/31 13:55:13;;;;;;;1.00;0.70;;;;;;;21.75;34.08;96146.75;4960576;29;20047;-85
2022/05/31 13:57:52;;;;;;;1.25;0.88;;;;;;;;;;4960257;29;20477;-82
2022/05/31 14:00:39;;;;;;;1.65;1.00;;;;;;;21.72;34.11;96141.97;4958541;29;20058;-87
2022/05/31 14:03:22;;;;;;;2.55;1.00;;;;;;;21.71;33.78;96137.75;4958103;29;20551;-88
2022/05/31 14:06:16;;;;;;;2.45;1.00;;;;;;;21.72;33.85;96141.19;4958139;29;20054;-87
2022/05/31 14:08:56;;;;;;;1.73;1.00;;;;;;;21.70;33.93;96141.44;4957448;29;20423;-88
2022/05/31 14:11:34;;;;;;;1.83;1.05;;;;;;;21.70;34.35;96138.78;4956798;29;20063;-82
2022/05/31 14:14:31;;;;;;;2.10;1.20;;;;;;;21.70;34.23;96130.03;4956813;29;20057;-81
2022/05/31 14:17:09;;;;;;;2.25;0.93;;;;;;;21.71;34.24;96137.75;4957835;29;20569;-84
2022/05/31 14:19:54;;;;;;;3.88;1.00;;;;;;;21.73;34.26;96134.81;4957671;29;20055;-84
2022/05/31 14:22:30;;;;;;;1.33;0.90;;;;;;;21.71;34.33;96132.44;4957357;29;20138;-86
2022/05/31 14:25:14;;;;;;;5.32;1.10;;;;;;;21.72;34.67;96130.59;4955604;29;20062;-83
2022/05/31 14:27:52;;;;;;;2.85;1.20;;;;;;;21.71;34.39;96131.63;4955939;29;20066;-90
2022/05/31 14:30:39;;;;;;;1.85;1.00;;;;;;;21.70;34.78;96144.09;4960808;28;20051;-88
2022/05/31 14:33:20;;;;;;;2.00;1.00;;;;;;;21.68;34.49;96140.91;4965165;29;20090;-89
2022/05/31 14:36:00;;;;;;;1.77;1.15;;;;;;;21.66;34.71;96144.91;4965322;29;20101;-88
2022/05/31 14:38:37;;;;;;;2.88;1.08;;;;;;;21.63;34.65;96143.56;4964612;29;20047;-86
2022/05/31 14:41:22;;;;;;;1.92;1.33;;;;;;;21.60;34.94;96149.38;4964888;29;20055;-90
2022/05/31 14:44:02;;;;;;;2.88;1.30;;;;;;;21.58;34.68;96146.19;4964142;29;20062;-88
2022/05/31 14:46:42;;;;;;;1.65;1.17;;;;;;;21.56;34.97;96148.34;4964091;29;20060;-89
2022/05/31 14:49:27;;;;;;;3.53;1.75;;;;;;;21.53;35.13;96154.16;4964411;29;20090;-88
2022/05/31 14:52:00;;;;;;;1.80;1.17;;;;;;;21.49;34.56;96153.09;4971074;29;20098;-88
2022/05/31 14:54:38;;;;;;;2.00;1.27;;;;;;;21.46;34.95;96153.63;4971806;29;20052;-88
2022/05/31 14:57:13;;;;;;;2.03;1.15;;;;;;;21.42;34.95;96153.34;4972197;29;20055;-88
2022/05/31 14:59:46;;;;;;;1.75;1.23;;;;;;;21.38;35.26;96147.75;4968226;29;20117;-87
2022/05/31 15:02:27;;;;;;;1.42;1.27;;;;;;;21.35;35.58;96142.94;4968428;29;20055;-87
2022/05/31 15:05:02;;;;;;;1.17;0.90;;;;;;;21.35;35.47;96148.25;4968405;29;20495;-86
2022/05/31 15:07:53;;;;;;;2.15;1.30;;;;;;;21.35;36.05;96145.59;4966984;29;20553;-85